sensor_id;sensor_type;location;lat;lon;timestamp;P1;durP1;ratioP1;P2;durP2;ratioP2
59310;SDS011;45078;51.654;21.250;2023-08-30T00:00:41;10.43;;;6.22;;
59310;SDS011;45078;51.654;21.250;2023-08-30T00:03:07;10.57;;;6.50;;
59310;SDS011;45078;51.654;21.250;2023-08-30T00:05:33;15.30;;;7.18;;
59310;SDS011;45078;51.654;21.250;2023-08-30T00:07:58;11.15;;;7.03;;
59310;SDS011;45078;51.654;21.250;2023-08-30T00:10:24;11.15;;;7.72;;
59310;SDS011;45078;51.654;21.250;2023-08-30T00:12:50;10.70;;;7.05;;
59310;SDS011;45078;51.654;21.250;2023-08-30T00:15:15;10.02;;;7.05;;
59310;SDS011;45078;51.654;21.250;2023-08-30T00:17:41;12.05;;;7.82;;
59310;SDS011;45078;51.654;21.250;2023-08-30T00:20:07;14.63;;;7.90;;
59310;SDS011;45078;51.654;21.250;2023-08-30T00:22:34;15.80;;;8.20;;
59310;SDS011;45078;51.654;21.250;2023-08-30T00:25:00;12.35;;;8.50;;
59310;SDS011;45078;51.654;21.250;2023-08-30T00:27:26;12.57;;;8.30;;
59310;SDS011;45078;51.654;21.250;2023-08-30T00:29:52;14.32;;;8.80;;
59310;SDS011;45078;51.654;21.250;2023-08-30T00:32:17;13.70;;;8.50;;
59310;SDS011;45078;51.654;21.250;2023-08-30T00:34:43;10.98;;;7.85;;
59310;SDS011;45078;51.654;21.250;2023-08-30T00:37:09;12.40;;;7.72;;
59310;SDS011;45078;51.654;21.250;2023-08-30T00:39:38;12.35;;;7.50;;
59310;SDS011;45078;51.654;21.250;2023-08-30T00:42:04;9.88;;;7.32;;
59310;SDS011;45078;51.654;21.250;2023-08-30T00:44:32;12.80;;;7.82;;
59310;SDS011;45078;51.654;21.250;2023-08-30T00:47:01;10.63;;;7.15;;
59310;SDS011;45078;51.654;21.250;2023-08-30T00:49:28;9.85;;;7.20;;
59310;SDS011;45078;51.654;21.250;2023-08-30T00:51:56;12.85;;;7.38;;
59310;SDS011;45078;51.654;21.250;2023-08-30T00:54:23;13.55;;;7.90;;
59310;SDS011;45078;51.654;21.250;2023-08-30T00:56:49;15.70;;;7.53;;
59310;SDS011;45078;51.654;21.250;2023-08-30T00:59:15;12.80;;;8.10;;
59310;SDS011;45078;51.654;21.250;2023-08-30T01:01:41;11.00;;;7.50;;
59310;SDS011;45078;51.654;21.250;2023-08-30T01:04:07;11.05;;;7.45;;
59310;SDS011;45078;51.654;21.250;2023-08-30T01:06:33;11.05;;;7.25;;
59310;SDS011;45078;51.654;21.250;2023-08-30T01:09:02;12.88;;;7.85;;
59310;SDS011;45078;51.654;21.250;2023-08-30T01:11:32;12.75;;;8.63;;
59310;SDS011;45078;51.654;21.250;2023-08-30T01:14:25;17.00;;;8.10;;
59310;SDS011;45078;51.654;21.250;2023-08-30T01:16:58;16.90;;;9.70;;
59310;SDS011;45078;51.654;21.250;2023-08-30T01:25:32;13.85;;;7.90;;
59310;SDS011;45078;51.654;21.250;2023-08-30T01:28:12;12.75;;;8.20;;
59310;SDS011;45078;51.654;21.250;2023-08-30T01:30:41;13.93;;;7.70;;
59310;SDS011;45078;51.654;21.250;2023-08-30T01:33:08;16.30;;;7.90;;
59310;SDS011;45078;51.654;21.250;2023-08-30T01:35:35;11.77;;;7.22;;
59310;SDS011;45078;51.654;21.250;2023-08-30T01:38:05;10.45;;;7.00;;
59310;SDS011;45078;51.654;21.250;2023-08-30T01:40:33;13.00;;;7.28;;
59310;SDS011;45078;51.654;21.250;2023-08-30T01:43:01;10.60;;;6.82;;
59310;SDS011;45078;51.654;21.250;2023-08-30T01:45:30;12.63;;;6.82;;
59310;SDS011;45078;51.654;21.250;2023-08-30T01:47:58;11.40;;;6.65;;
59310;SDS011;45078;51.654;21.250;2023-08-30T01:50:24;12.35;;;6.60;;
59310;SDS011;45078;51.654;21.250;2023-08-30T01:52:51;11.50;;;6.60;;
59310;SDS011;45078;51.654;21.250;2023-08-30T01:55:17;15.90;;;6.65;;
59310;SDS011;45078;51.654;21.250;2023-08-30T01:57:45;12.73;;;7.03;;
59310;SDS011;45078;51.654;21.250;2023-08-30T02:00:11;10.23;;;6.55;;
59310;SDS011;45078;51.654;21.250;2023-08-30T02:02:37;11.10;;;6.50;;
59310;SDS011;45078;51.654;21.250;2023-08-30T02:05:03;9.60;;;6.30;;
59310;SDS011;45078;51.654;21.250;2023-08-30T02:10:21;9.90;;;7.10;;
59310;SDS011;45078;51.654;21.250;2023-08-30T02:12:51;12.00;;;6.30;;
59310;SDS011;45078;51.654;21.250;2023-08-30T02:15:19;14.00;;;6.30;;
59310;SDS011;45078;51.654;21.250;2023-08-30T02:17:46;11.07;;;6.68;;
59310;SDS011;45078;51.654;21.250;2023-08-30T02:20:13;10.25;;;6.50;;
59310;SDS011;45078;51.654;21.250;2023-08-30T02:22:38;10.57;;;6.57;;
59310;SDS011;45078;51.654;21.250;2023-08-30T02:25:04;11.68;;;7.47;;
59310;SDS011;45078;51.654;21.250;2023-08-30T02:27:31;16.13;;;6.90;;
59310;SDS011;45078;51.654;21.250;2023-08-30T02:29:57;12.35;;;6.38;;
59310;SDS011;45078;51.654;21.250;2023-08-30T02:32:23;13.93;;;7.38;;
59310;SDS011;45078;51.654;21.250;2023-08-30T02:34:50;10.85;;;6.70;;
59310;SDS011;45078;51.654;21.250;2023-08-30T02:37:17;12.77;;;6.78;;
59310;SDS011;45078;51.654;21.250;2023-08-30T02:39:43;11.38;;;6.88;;
59310;SDS011;45078;51.654;21.250;2023-08-30T02:42:09;15.13;;;7.60;;
59310;SDS011;45078;51.654;21.250;2023-08-30T02:44:35;13.93;;;7.80;;
59310;SDS011;45078;51.654;21.250;2023-08-30T02:47:00;16.70;;;9.43;;
59310;SDS011;45078;51.654;21.250;2023-08-30T02:49:26;16.80;;;9.60;;
59310;SDS011;45078;51.654;21.250;2023-08-30T02:51:52;22.25;;;10.32;;
59310;SDS011;45078;51.654;21.250;2023-08-30T02:54:17;18.88;;;10.43;;
59310;SDS011;45078;51.654;21.250;2023-08-30T02:56:43;25.67;;;11.63;;
59310;SDS011;45078;51.654;21.250;2023-08-30T02:59:09;25.30;;;12.10;;
59310;SDS011;45078;51.654;21.250;2023-08-30T03:01:35;30.15;;;14.00;;
59310;SDS011;45078;51.654;21.250;2023-08-30T03:04:01;27.65;;;13.38;;
59310;SDS011;45078;51.654;21.250;2023-08-30T03:06:29;27.42;;;13.40;;
59310;SDS011;45078;51.654;21.250;2023-08-30T03:08:55;33.22;;;15.15;;
59310;SDS011;45078;51.654;21.250;2023-08-30T03:11:20;33.35;;;15.38;;
59310;SDS011;45078;51.654;21.250;2023-08-30T03:13:46;35.28;;;15.88;;
59310;SDS011;45078;51.654;21.250;2023-08-30T03:16:15;37.88;;;15.43;;
59310;SDS011;45078;51.654;21.250;2023-08-30T03:18:41;34.30;;;16.35;;
59310;SDS011;45078;51.654;21.250;2023-08-30T03:21:08;34.53;;;16.92;;
59310;SDS011;45078;51.654;21.250;2023-08-30T03:23:34;45.85;;;18.08;;
59310;SDS011;45078;51.654;21.250;2023-08-30T03:26:07;36.13;;;17.75;;
59310;SDS011;45078;51.654;21.250;2023-08-30T03:28:36;34.38;;;16.48;;
59310;SDS011;45078;51.654;21.250;2023-08-30T03:31:10;34.05;;;16.95;;
59310;SDS011;45078;51.654;21.250;2023-08-30T03:33:39;32.95;;;16.20;;
59310;SDS011;45078;51.654;21.250;2023-08-30T03:36:11;40.28;;;17.17;;
59310;SDS011;45078;51.654;21.250;2023-08-30T03:38:37;38.47;;;16.60;;
59310;SDS011;45078;51.654;21.250;2023-08-30T03:41:04;35.78;;;17.00;;
59310;SDS011;45078;51.654;21.250;2023-08-30T03:43:30;38.90;;;16.85;;
59310;SDS011;45078;51.654;21.250;2023-08-30T03:45:56;31.77;;;16.65;;
59310;SDS011;45078;51.654;21.250;2023-08-30T03:48:22;32.78;;;16.38;;
59310;SDS011;45078;51.654;21.250;2023-08-30T03:50:48;33.55;;;17.05;;
59310;SDS011;45078;51.654;21.250;2023-08-30T03:53:13;31.20;;;17.20;;
59310;SDS011;45078;51.654;21.250;2023-08-30T03:55:40;32.63;;;17.27;;
59310;SDS011;45078;51.654;21.250;2023-08-30T03:58:06;32.92;;;16.67;;
59310;SDS011;45078;51.654;21.250;2023-08-30T04:00:31;32.17;;;16.33;;
59310;SDS011;45078;51.654;21.250;2023-08-30T04:02:57;30.73;;;16.35;;
59310;SDS011;45078;51.654;21.250;2023-08-30T04:05:22;34.17;;;15.60;;
59310;SDS011;45078;51.654;21.250;2023-08-30T04:07:48;28.25;;;16.60;;
59310;SDS011;45078;51.654;21.250;2023-08-30T04:10:14;30.42;;;16.58;;
59310;SDS011;45078;51.654;21.250;2023-08-30T04:12:39;29.67;;;16.95;;
59310;SDS011;45078;51.654;21.250;2023-08-30T04:15:05;33.08;;;16.98;;
59310;SDS011;45078;51.654;21.250;2023-08-30T04:17:31;28.20;;;15.82;;
59310;SDS011;45078;51.654;21.250;2023-08-30T04:19:56;32.22;;;16.63;;
59310;SDS011;45078;51.654;21.250;2023-08-30T04:22:22;30.48;;;16.42;;
59310;SDS011;45078;51.654;21.250;2023-08-30T04:24:48;31.52;;;15.98;;
59310;SDS011;45078;51.654;21.250;2023-08-30T04:27:13;30.33;;;15.82;;
59310;SDS011;45078;51.654;21.250;2023-08-30T04:29:39;29.85;;;15.38;;
59310;SDS011;45078;51.654;21.250;2023-08-30T04:32:05;29.95;;;16.02;;
59310;SDS011;45078;51.654;21.250;2023-08-30T04:34:31;32.35;;;16.33;;
59310;SDS011;45078;51.654;21.250;2023-08-30T04:36:57;32.42;;;15.98;;
59310;SDS011;45078;51.654;21.250;2023-08-30T04:39:23;32.88;;;16.55;;
59310;SDS011;45078;51.654;21.250;2023-08-30T04:41:49;29.70;;;16.33;;
59310;SDS011;45078;51.654;21.250;2023-08-30T04:44:14;28.95;;;16.77;;
59310;SDS011;45078;51.654;21.250;2023-08-30T04:46:41;29.58;;;16.67;;
59310;SDS011;45078;51.654;21.250;2023-08-30T04:49:06;32.25;;;17.70;;
59310;SDS011;45078;51.654;21.250;2023-08-30T04:51:32;32.15;;;18.17;;
59310;SDS011;45078;51.654;21.250;2023-08-30T04:53:58;37.50;;;18.35;;
59310;SDS011;45078;51.654;21.250;2023-08-30T04:56:23;39.65;;;19.52;;
59310;SDS011;45078;51.654;21.250;2023-08-30T04:58:49;39.08;;;18.80;;
59310;SDS011;45078;51.654;21.250;2023-08-30T05:01:15;41.75;;;20.23;;
59310;SDS011;45078;51.654;21.250;2023-08-30T05:03:41;35.88;;;17.73;;
59310;SDS011;45078;51.654;21.250;2023-08-30T05:06:07;42.80;;;19.30;;
59310;SDS011;45078;51.654;21.250;2023-08-30T05:08:33;40.13;;;18.52;;
59310;SDS011;45078;51.654;21.250;2023-08-30T05:10:58;47.58;;;21.13;;
59310;SDS011;45078;51.654;21.250;2023-08-30T05:13:24;41.20;;;19.20;;
59310;SDS011;45078;51.654;21.250;2023-08-30T05:15:50;38.80;;;18.23;;
59310;SDS011;45078;51.654;21.250;2023-08-30T05:18:15;40.50;;;19.35;;
59310;SDS011;45078;51.654;21.250;2023-08-30T05:20:41;43.15;;;18.77;;
59310;SDS011;45078;51.654;21.250;2023-08-30T05:23:07;41.75;;;19.50;;
59310;SDS011;45078;51.654;21.250;2023-08-30T05:25:33;44.88;;;19.42;;
59310;SDS011;45078;51.654;21.250;2023-08-30T05:27:58;46.47;;;19.38;;
59310;SDS011;45078;51.654;21.250;2023-08-30T05:30:24;44.60;;;18.70;;
59310;SDS011;45078;51.654;21.250;2023-08-30T05:32:50;45.65;;;19.70;;
59310;SDS011;45078;51.654;21.250;2023-08-30T05:35:15;41.85;;;18.40;;
59310;SDS011;45078;51.654;21.250;2023-08-30T05:37:41;39.72;;;18.83;;
59310;SDS011;45078;51.654;21.250;2023-08-30T05:40:07;50.35;;;18.70;;
59310;SDS011;45078;51.654;21.250;2023-08-30T05:42:33;44.83;;;20.15;;
59310;SDS011;45078;51.654;21.250;2023-08-30T05:44:58;44.85;;;18.70;;
59310;SDS011;45078;51.654;21.250;2023-08-30T05:47:24;44.05;;;19.50;;
59310;SDS011;45078;51.654;21.250;2023-08-30T05:49:49;45.10;;;19.08;;
59310;SDS011;45078;51.654;21.250;2023-08-30T05:52:15;44.35;;;18.70;;
59310;SDS011;45078;51.654;21.250;2023-08-30T05:54:43;49.85;;;19.52;;
59310;SDS011;45078;51.654;21.250;2023-08-30T05:57:09;42.40;;;19.23;;
59310;SDS011;45078;51.654;21.250;2023-08-30T05:59:35;46.42;;;19.92;;
59310;SDS011;45078;51.654;21.250;2023-08-30T06:02:01;47.38;;;19.20;;
59310;SDS011;45078;51.654;21.250;2023-08-30T06:04:27;48.67;;;19.50;;
59310;SDS011;45078;51.654;21.250;2023-08-30T06:06:52;48.30;;;20.50;;
59310;SDS011;45078;51.654;21.250;2023-08-30T06:09:18;55.95;;;21.08;;
59310;SDS011;45078;51.654;21.250;2023-08-30T06:11:43;53.85;;;21.45;;
59310;SDS011;45078;51.654;21.250;2023-08-30T06:14:09;60.45;;;21.80;;
59310;SDS011;45078;51.654;21.250;2023-08-30T06:16:35;53.88;;;20.98;;
59310;SDS011;45078;51.654;21.250;2023-08-30T06:19:01;54.60;;;20.88;;
59310;SDS011;45078;51.654;21.250;2023-08-30T06:21:27;50.92;;;20.88;;
59310;SDS011;45078;51.654;21.250;2023-08-30T06:23:52;52.22;;;21.48;;
59310;SDS011;45078;51.654;21.250;2023-08-30T06:26:18;53.65;;;20.83;;
59310;SDS011;45078;51.654;21.250;2023-08-30T06:28:44;52.53;;;20.83;;
59310;SDS011;45078;51.654;21.250;2023-08-30T06:31:10;55.80;;;21.70;;
59310;SDS011;45078;51.654;21.250;2023-08-30T06:33:36;58.90;;;20.90;;
59310;SDS011;45078;51.654;21.250;2023-08-30T06:36:05;61.08;;;22.33;;
59310;SDS011;45078;51.654;21.250;2023-08-30T06:38:30;64.35;;;23.63;;
59310;SDS011;45078;51.654;21.250;2023-08-30T06:40:59;59.97;;;21.10;;
59310;SDS011;45078;51.654;21.250;2023-08-30T06:43:25;61.50;;;22.98;;
59310;SDS011;45078;51.654;21.250;2023-08-30T06:45:51;55.53;;;22.15;;
59310;SDS011;45078;51.654;21.250;2023-08-30T06:48:18;49.80;;;21.90;;
59310;SDS011;45078;51.654;21.250;2023-08-30T06:50:43;50.40;;;21.20;;
59310;SDS011;45078;51.654;21.250;2023-08-30T06:53:09;46.45;;;20.95;;
59310;SDS011;45078;51.654;21.250;2023-08-30T06:55:35;50.25;;;22.25;;
59310;SDS011;45078;51.654;21.250;2023-08-30T06:58:01;48.45;;;20.27;;
59310;SDS011;45078;51.654;21.250;2023-08-30T07:00:27;45.20;;;20.38;;
59310;SDS011;45078;51.654;21.250;2023-08-30T07:02:53;50.17;;;21.58;;
59310;SDS011;45078;51.654;21.250;2023-08-30T07:05:19;46.28;;;20.33;;
59310;SDS011;45078;51.654;21.250;2023-08-30T07:07:45;43.08;;;21.70;;
59310;SDS011;45078;51.654;21.250;2023-08-30T07:10:10;42.53;;;20.83;;
59310;SDS011;45078;51.654;21.250;2023-08-30T07:12:36;44.45;;;20.17;;
59310;SDS011;45078;51.654;21.250;2023-08-30T07:15:02;43.78;;;20.77;;
59310;SDS011;45078;51.654;21.250;2023-08-30T07:17:28;41.20;;;19.02;;
59310;SDS011;45078;51.654;21.250;2023-08-30T07:19:54;37.63;;;19.80;;
59310;SDS011;45078;51.654;21.250;2023-08-30T07:22:20;43.25;;;20.13;;
59310;SDS011;45078;51.654;21.250;2023-08-30T07:24:45;42.05;;;19.15;;
59310;SDS011;45078;51.654;21.250;2023-08-30T07:27:11;41.97;;;20.38;;
59310;SDS011;45078;51.654;21.250;2023-08-30T07:29:39;39.47;;;19.38;;
59310;SDS011;45078;51.654;21.250;2023-08-30T07:32:06;45.05;;;20.25;;
59310;SDS011;45078;51.654;21.250;2023-08-30T07:34:32;41.78;;;19.45;;
59310;SDS011;45078;51.654;21.250;2023-08-30T07:36:58;41.17;;;19.88;;
59310;SDS011;45078;51.654;21.250;2023-08-30T07:39:23;47.53;;;21.83;;
59310;SDS011;45078;51.654;21.250;2023-08-30T07:41:49;36.75;;;18.98;;
59310;SDS011;45078;51.654;21.250;2023-08-30T07:44:14;36.85;;;17.98;;
59310;SDS011;45078;51.654;21.250;2023-08-30T07:46:41;41.83;;;19.13;;
59310;SDS011;45078;51.654;21.250;2023-08-30T07:49:06;44.83;;;19.70;;
59310;SDS011;45078;51.654;21.250;2023-08-30T07:51:32;35.92;;;18.70;;
59310;SDS011;45078;51.654;21.250;2023-08-30T07:53:58;39.63;;;18.25;;
59310;SDS011;45078;51.654;21.250;2023-08-30T07:56:23;35.03;;;17.58;;
59310;SDS011;45078;51.654;21.250;2023-08-30T07:58:49;37.60;;;17.95;;
59310;SDS011;45078;51.654;21.250;2023-08-30T08:01:15;34.90;;;17.80;;
59310;SDS011;45078;51.654;21.250;2023-08-30T08:03:40;35.72;;;17.98;;
59310;SDS011;45078;51.654;21.250;2023-08-30T08:06:06;34.30;;;17.73;;
59310;SDS011;45078;51.654;21.250;2023-08-30T08:08:32;35.45;;;17.38;;
59310;SDS011;45078;51.654;21.250;2023-08-30T08:10:58;35.33;;;17.38;;
59310;SDS011;45078;51.654;21.250;2023-08-30T08:13:24;37.10;;;19.10;;
59310;SDS011;45078;51.654;21.250;2023-08-30T08:15:50;40.15;;;19.52;;
59310;SDS011;45078;51.654;21.250;2023-08-30T08:18:16;35.83;;;16.67;;
59310;SDS011;45078;51.654;21.250;2023-08-30T08:20:42;34.67;;;18.27;;
59310;SDS011;45078;51.654;21.250;2023-08-30T08:23:08;38.80;;;20.52;;
59310;SDS011;45078;51.654;21.250;2023-08-30T08:25:34;39.78;;;19.20;;
59310;SDS011;45078;51.654;21.250;2023-08-30T08:27:59;39.05;;;17.65;;
59310;SDS011;45078;51.654;21.250;2023-08-30T08:30:25;40.17;;;18.85;;
59310;SDS011;45078;51.654;21.250;2023-08-30T08:32:51;36.13;;;18.38;;
59310;SDS011;45078;51.654;21.250;2023-08-30T08:35:16;39.28;;;18.98;;
59310;SDS011;45078;51.654;21.250;2023-08-30T08:37:42;38.00;;;17.90;;
59310;SDS011;45078;51.654;21.250;2023-08-30T08:40:08;35.97;;;18.00;;
59310;SDS011;45078;51.654;21.250;2023-08-30T08:42:34;38.88;;;17.85;;
59310;SDS011;45078;51.654;21.250;2023-08-30T08:45:01;40.00;;;19.48;;
59310;SDS011;45078;51.654;21.250;2023-08-30T08:47:29;34.25;;;16.38;;
59310;SDS011;45078;51.654;21.250;2023-08-30T08:49:56;36.55;;;17.05;;
59310;SDS011;45078;51.654;21.250;2023-08-30T08:52:21;35.75;;;16.85;;
59310;SDS011;45078;51.654;21.250;2023-08-30T08:54:52;34.78;;;16.27;;
59310;SDS011;45078;51.654;21.250;2023-08-30T08:57:19;21.52;;;13.00;;
59310;SDS011;45078;51.654;21.250;2023-08-30T08:59:46;22.55;;;13.88;;
59310;SDS011;45078;51.654;21.250;2023-08-30T09:02:13;17.67;;;10.32;;
59310;SDS011;45078;51.654;21.250;2023-08-30T09:04:39;16.88;;;10.00;;
59310;SDS011;45078;51.654;21.250;2023-08-30T09:07:05;14.00;;;8.65;;
59310;SDS011;45078;51.654;21.250;2023-08-30T09:09:32;15.35;;;8.77;;
59310;SDS011;45078;51.654;21.250;2023-08-30T09:11:59;16.08;;;8.45;;
59310;SDS011;45078;51.654;21.250;2023-08-30T09:14:25;17.17;;;8.75;;
59310;SDS011;45078;51.654;21.250;2023-08-30T09:17:09;12.35;;;8.23;;
59310;SDS011;45078;51.654;21.250;2023-08-30T09:19:34;12.68;;;7.30;;
59310;SDS011;45078;51.654;21.250;2023-08-30T09:22:00;9.70;;;6.40;;
59310;SDS011;45078;51.654;21.250;2023-08-30T09:24:25;11.98;;;6.43;;
59310;SDS011;45078;51.654;21.250;2023-08-30T09:27:03;9.63;;;5.70;;
59310;SDS011;45078;51.654;21.250;2023-08-30T09:29:28;10.35;;;5.90;;
59310;SDS011;45078;51.654;21.250;2023-08-30T09:31:55;8.82;;;5.15;;
59310;SDS011;45078;51.654;21.250;2023-08-30T09:34:24;10.25;;;5.47;;
59310;SDS011;45078;51.654;21.250;2023-08-30T09:36:50;10.35;;;6.15;;
59310;SDS011;45078;51.654;21.250;2023-08-30T09:39:16;11.32;;;5.90;;
59310;SDS011;45078;51.654;21.250;2023-08-30T09:41:46;8.32;;;5.45;;
59310;SDS011;45078;51.654;21.250;2023-08-30T09:44:16;10.90;;;6.40;;
59310;SDS011;45078;51.654;21.250;2023-08-30T09:46:44;10.52;;;6.22;;
59310;SDS011;45078;51.654;21.250;2023-08-30T09:49:13;10.88;;;6.00;;
59310;SDS011;45078;51.654;21.250;2023-08-30T09:51:39;11.52;;;6.80;;
59310;SDS011;45078;51.654;21.250;2023-08-30T09:54:10;9.18;;;5.93;;
59310;SDS011;45078;51.654;21.250;2023-08-30T09:56:42;9.63;;;6.05;;
59310;SDS011;45078;51.654;21.250;2023-08-30T09:59:10;8.15;;;5.13;;
59310;SDS011;45078;51.654;21.250;2023-08-30T10:01:37;12.45;;;5.80;;
59310;SDS011;45078;51.654;21.250;2023-08-30T10:04:10;8.07;;;5.43;;
59310;SDS011;45078;51.654;21.250;2023-08-30T10:06:39;9.63;;;5.28;;
59310;SDS011;45078;51.654;21.250;2023-08-30T10:09:05;6.25;;;4.38;;
59310;SDS011;45078;51.654;21.250;2023-08-30T10:11:35;4.72;;;3.42;;
59310;SDS011;45078;51.654;21.250;2023-08-30T10:14:02;4.90;;;3.22;;
59310;SDS011;45078;51.654;21.250;2023-08-30T10:16:35;3.58;;;2.63;;
59310;SDS011;45078;51.654;21.250;2023-08-30T10:19:09;3.45;;;2.50;;
59310;SDS011;45078;51.654;21.250;2023-08-30T10:21:39;4.82;;;2.67;;
59310;SDS011;45078;51.654;21.250;2023-08-30T10:24:06;4.15;;;2.65;;
59310;SDS011;45078;51.654;21.250;2023-08-30T10:26:35;3.75;;;2.65;;
59310;SDS011;45078;51.654;21.250;2023-08-30T10:29:04;3.83;;;2.83;;
59310;SDS011;45078;51.654;21.250;2023-08-30T10:31:31;8.77;;;2.83;;
59310;SDS011;45078;51.654;21.250;2023-08-30T10:33:56;4.97;;;2.53;;
59310;SDS011;45078;51.654;21.250;2023-08-30T10:36:25;4.55;;;2.60;;
59310;SDS011;45078;51.654;21.250;2023-08-30T10:38:54;4.28;;;2.50;;
59310;SDS011;45078;51.654;21.250;2023-08-30T10:41:24;3.33;;;1.85;;
59310;SDS011;45078;51.654;21.250;2023-08-30T10:43:57;2.67;;;1.67;;
59310;SDS011;45078;51.654;21.250;2023-08-30T10:46:32;2.50;;;1.80;;
59310;SDS011;45078;51.654;21.250;2023-08-30T10:49:09;3.05;;;1.10;;
59310;SDS011;45078;51.654;21.250;2023-08-30T10:51:37;2.65;;;1.60;;
59310;SDS011;45078;51.654;21.250;2023-08-30T11:01:50;2.67;;;1.55;;
59310;SDS011;45078;51.654;21.250;2023-08-30T11:04:17;3.05;;;1.90;;
59310;SDS011;45078;51.654;21.250;2023-08-30T11:06:44;2.50;;;1.90;;
59310;SDS011;45078;51.654;21.250;2023-08-30T11:09:18;2.42;;;1.70;;
59310;SDS011;45078;51.654;21.250;2023-08-30T11:11:46;3.28;;;1.92;;
59310;SDS011;45078;51.654;21.250;2023-08-30T11:14:12;2.45;;;1.73;;
59310;SDS011;45078;51.654;21.250;2023-08-30T11:16:39;2.13;;;1.60;;
59310;SDS011;45078;51.654;21.250;2023-08-30T11:19:06;2.72;;;1.73;;
59310;SDS011;45078;51.654;21.250;2023-08-30T11:21:33;2.28;;;1.50;;
59310;SDS011;45078;51.654;21.250;2023-08-30T11:24:01;2.28;;;1.50;;
59310;SDS011;45078;51.654;21.250;2023-08-30T11:26:28;2.63;;;1.85;;
59310;SDS011;45078;51.654;21.250;2023-08-30T11:28:54;2.95;;;1.90;;
59310;SDS011;45078;51.654;21.250;2023-08-30T11:31:24;3.40;;;1.73;;
59310;SDS011;45078;51.654;21.250;2023-08-30T11:33:53;3.63;;;1.60;;
59310;SDS011;45078;51.654;21.250;2023-08-30T11:36:23;3.67;;;2.05;;
59310;SDS011;45078;51.654;21.250;2023-08-30T11:38:53;3.17;;;1.60;;
59310;SDS011;45078;51.654;21.250;2023-08-30T11:41:19;1.83;;;1.27;;
59310;SDS011;45078;51.654;21.250;2023-08-30T11:43:49;2.92;;;1.20;;
59310;SDS011;45078;51.654;21.250;2023-08-30T11:46:18;2.25;;;1.10;;
59310;SDS011;45078;51.654;21.250;2023-08-30T11:48:46;2.40;;;1.02;;
59310;SDS011;45078;51.654;21.250;2023-08-30T11:51:13;1.25;;;0.90;;
59310;SDS011;45078;51.654;21.250;2023-08-30T11:53:39;2.33;;;1.10;;
59310;SDS011;45078;51.654;21.250;2023-08-30T11:56:06;2.20;;;1.15;;
59310;SDS011;45078;51.654;21.250;2023-08-30T11:58:33;2.58;;;1.15;;
59310;SDS011;45078;51.654;21.250;2023-08-30T12:01:00;2.08;;;1.15;;
59310;SDS011;45078;51.654;21.250;2023-08-30T12:03:27;2.30;;;1.40;;
59310;SDS011;45078;51.654;21.250;2023-08-30T12:05:53;2.10;;;0.80;;
59310;SDS011;45078;51.654;21.250;2023-08-30T12:08:26;4.28;;;1.02;;
59310;SDS011;45078;51.654;21.250;2023-08-30T12:10:54;1.65;;;0.90;;
59310;SDS011;45078;51.654;21.250;2023-08-30T12:15:57;1.05;;;0.68;;
59310;SDS011;45078;51.654;21.250;2023-08-30T12:18:23;1.58;;;1.00;;
59310;SDS011;45078;51.654;21.250;2023-08-30T12:20:57;0.98;;;0.70;;
59310;SDS011;45078;51.654;21.250;2023-08-30T12:23:28;2.47;;;0.75;;
59310;SDS011;45078;51.654;21.250;2023-08-30T12:25:58;1.00;;;0.60;;
59310;SDS011;45078;51.654;21.250;2023-08-30T12:28:32;6.93;;;0.88;;
59310;SDS011;45078;51.654;21.250;2023-08-30T12:30:59;1.40;;;0.90;;
59310;SDS011;45078;51.654;21.250;2023-08-30T12:33:26;0.85;;;0.60;;
59310;SDS011;45078;51.654;21.250;2023-08-30T12:35:53;1.17;;;0.70;;
59310;SDS011;45078;51.654;21.250;2023-08-30T12:38:19;0.80;;;0.50;;
59310;SDS011;45078;51.654;21.250;2023-08-30T12:40:45;1.10;;;0.68;;
59310;SDS011;45078;51.654;21.250;2023-08-30T12:43:11;0.93;;;0.65;;
59310;SDS011;45078;51.654;21.250;2023-08-30T12:45:41;0.98;;;0.52;;
59310;SDS011;45078;51.654;21.250;2023-08-30T12:48:08;0.80;;;0.60;;
59310;SDS011;45078;51.654;21.250;2023-08-30T12:50:35;0.73;;;0.50;;
59310;SDS011;45078;51.654;21.250;2023-08-30T12:53:01;1.08;;;0.60;;
59310;SDS011;45078;51.654;21.250;2023-08-30T12:55:31;0.93;;;0.47;;
59310;SDS011;45078;51.654;21.250;2023-08-30T12:57:57;1.40;;;0.80;;
59310;SDS011;45078;51.654;21.250;2023-08-30T13:00:23;1.90;;;1.15;;
59310;SDS011;45078;51.654;21.250;2023-08-30T13:02:49;0.50;;;0.45;;
59310;SDS011;45078;51.654;21.250;2023-08-30T13:05:15;2.42;;;0.70;;
59310;SDS011;45078;51.654;21.250;2023-08-30T13:07:42;1.23;;;0.82;;
59310;SDS011;45078;51.654;21.250;2023-08-30T13:10:07;1.63;;;1.00;;
59310;SDS011;45078;51.654;21.250;2023-08-30T13:12:33;2.45;;;0.93;;
59310;SDS011;45078;51.654;21.250;2023-08-30T13:14:59;1.60;;;1.00;;
59310;SDS011;45078;51.654;21.250;2023-08-30T13:17:26;3.00;;;0.80;;
59310;SDS011;45078;51.654;21.250;2023-08-30T13:19:51;0.90;;;0.60;;
59310;SDS011;45078;51.654;21.250;2023-08-30T13:22:17;3.42;;;0.93;;
59310;SDS011;45078;51.654;21.250;2023-08-30T13:24:43;2.85;;;0.98;;
59310;SDS011;45078;51.654;21.250;2023-08-30T13:27:09;1.20;;;0.90;;
59310;SDS011;45078;51.654;21.250;2023-08-30T13:29:35;1.75;;;1.00;;
59310;SDS011;45078;51.654;21.250;2023-08-30T13:32:01;1.77;;;1.00;;
59310;SDS011;45078;51.654;21.250;2023-08-30T13:34:28;1.42;;;0.90;;
59310;SDS011;45078;51.654;21.250;2023-08-30T13:36:53;1.88;;;0.93;;
59310;SDS011;45078;51.654;21.250;2023-08-30T13:39:19;1.33;;;0.80;;
59310;SDS011;45078;51.654;21.250;2023-08-30T13:41:45;1.27;;;0.80;;
59310;SDS011;45078;51.654;21.250;2023-08-30T13:44:14;2.22;;;0.90;;
59310;SDS011;45078;51.654;21.250;2023-08-30T13:46:40;2.35;;;0.70;;
59310;SDS011;45078;51.654;21.250;2023-08-30T13:49:06;1.00;;;0.65;;
59310;SDS011;45078;51.654;21.250;2023-08-30T13:51:32;1.38;;;0.90;;
59310;SDS011;45078;51.654;21.250;2023-08-30T13:53:58;3.60;;;1.00;;
59310;SDS011;45078;51.654;21.250;2023-08-30T13:56:23;1.02;;;0.88;;
59310;SDS011;45078;51.654;21.250;2023-08-30T13:58:49;3.05;;;0.75;;
59310;SDS011;45078;51.654;21.250;2023-08-30T14:01:15;1.77;;;0.90;;
59310;SDS011;45078;51.654;21.250;2023-08-30T14:03:41;7.75;;;1.30;;
59310;SDS011;45078;51.654;21.250;2023-08-30T14:06:07;1.77;;;1.20;;
59310;SDS011;45078;51.654;21.250;2023-08-30T14:08:33;3.00;;;1.48;;
59310;SDS011;45078;51.654;21.250;2023-08-30T14:10:59;2.17;;;1.13;;
59310;SDS011;45078;51.654;21.250;2023-08-30T14:13:25;3.03;;;1.20;;
59310;SDS011;45078;51.654;21.250;2023-08-30T14:15:53;1.80;;;1.20;;
59310;SDS011;45078;51.654;21.250;2023-08-30T14:18:19;4.28;;;1.25;;
59310;SDS011;45078;51.654;21.250;2023-08-30T14:20:44;2.13;;;1.30;;
59310;SDS011;45078;51.654;21.250;2023-08-30T14:23:10;1.70;;;1.23;;
59310;SDS011;45078;51.654;21.250;2023-08-30T14:25:36;2.28;;;1.45;;
59310;SDS011;45078;51.654;21.250;2023-08-30T14:28:02;2.78;;;1.60;;
59310;SDS011;45078;51.654;21.250;2023-08-30T14:30:29;3.40;;;1.73;;
59310;SDS011;45078;51.654;21.250;2023-08-30T14:32:55;2.40;;;1.33;;
59310;SDS011;45078;51.654;21.250;2023-08-30T14:35:21;3.92;;;1.50;;
59310;SDS011;45078;51.654;21.250;2023-08-30T14:37:48;2.75;;;1.48;;